Weather at St-Jérôme (Hydro-Québec) Heliport

Public forecast

Using degrees Celsius for public forecast. Weather courtesy of forecast.io.

Closest aviation weather report (METAR) to St-Jérôme (Hydro-Québec) Heliport

Closest report is Montreal International (Mirabel) Airport, 5.5 nm (10.2 km) S.

2024/05/22 09:00 (retrieved 33 minutes ago)

CYMX 220900Z 00000KT 15SM MIFG FEW058 BKN063 BKN080 14/14 A2983 RMK SC2SC5ACC1 ACC TR SLP103

Closest aviation forecast (TAF) to St-Jérôme (Hydro-Québec) Heliport

Closest forecast is Montreal International (Mirabel) Airport, 5.5 nm (10.2 km) S.

2024/05/22 06:42 (retrieved 3 hours ago)

TAF TAF CYMX 220540Z 2206/2306 VRB03KT P6SM BKN080 TEMPO 2206/2212 5SM BR SCT080 FM221200 VRB03KT P6SM BKN010 BECMG 2212/2214 SCT012 FM221600 23007KT P6SM SKC FM222200 25007KT P6SM -SHRA BKN040 PROB30 2222/2301 VRB15G30KT 2SM TSRA BR BKN020 OVC050CB FM230100 17008KT 4SM -SHRA BKN030 PROB30 2301/2304 VRB20G35KT 1SM +TSRA BKN020 OVC040CB FM230400 24012G22KT P6SM BKN030 PROB30 2304/2306 4SM TSRA BR BKN030CB RMK NXT FCST BY 221200Z